createdAt,value
2019-01-29T00:00:33.774Z,19.15
2019-01-29T00:03:01.297Z,19.15
2019-01-29T00:05:28.825Z,19.13
2019-01-29T00:07:56.378Z,19.12
2019-01-29T00:10:23.888Z,19.13
2019-01-29T00:12:51.472Z,19.12
2019-01-29T00:15:18.977Z,19.12
2019-01-29T00:17:46.512Z,19.13
2019-01-29T00:20:14.550Z,19.12
2019-01-29T00:22:42.093Z,19.13
2019-01-29T00:25:09.858Z,19.13
2019-01-29T00:27:37.365Z,19.11
2019-01-29T00:30:11.683Z,19.11
2019-01-29T00:32:39.181Z,19.12
2019-01-29T00:35:06.690Z,19.13
2019-01-29T00:37:34.213Z,19.14
2019-01-29T00:40:01.771Z,19.14
2019-01-29T00:42:29.267Z,19.13
2019-01-29T00:44:56.793Z,19.13
2019-01-29T00:47:24.317Z,19.11
2019-01-29T00:49:51.840Z,19.10
2019-01-29T00:52:19.363Z,19.09
2019-01-29T00:54:46.867Z,19.09
2019-01-29T00:57:14.389Z,19.10
2019-01-29T00:59:41.897Z,19.11
2019-01-29T01:02:09.391Z,19.07
2019-01-29T01:04:36.939Z,19.08
2019-01-29T01:07:04.438Z,19.09
2019-01-29T01:09:31.974Z,19.08
2019-01-29T01:11:59.491Z,19.08
2019-01-29T01:14:27.011Z,19.07
2019-01-29T01:16:54.527Z,19.07
2019-01-29T01:19:22.043Z,19.05
2019-01-29T01:21:49.562Z,19.08
2019-01-29T01:24:17.071Z,19.07
2019-01-29T01:26:44.579Z,19.07
2019-01-29T01:29:12.109Z,19.05
2019-01-29T01:31:39.625Z,19.06
2019-01-29T01:34:07.120Z,19.04
2019-01-29T01:36:34.655Z,19.03
2019-01-29T01:39:02.153Z,19.04
2019-01-29T01:41:29.644Z,19.04
2019-01-29T01:43:57.171Z,19.04
2019-01-29T01:46:24.678Z,19.03
2019-01-29T01:48:52.218Z,19.03
2019-01-29T01:51:19.722Z,19.02
2019-01-29T01:53:47.232Z,19.01
2019-01-29T01:56:14.742Z,19.03
2019-01-29T01:58:42.259Z,19.01
2019-01-29T02:01:09.757Z,19.02
2019-01-29T02:03:37.276Z,19.03
2019-01-29T02:06:04.799Z,19.03
2019-01-29T02:08:32.310Z,19.01
2019-01-29T02:10:59.789Z,19.02
2019-01-29T02:13:27.306Z,19.01
2019-01-29T02:15:54.833Z,19.00
2019-01-29T02:18:22.332Z,19.02
2019-01-29T02:20:49.843Z,19.01
2019-01-29T02:23:17.340Z,19.02
2019-01-29T02:25:44.868Z,19.01
2019-01-29T02:28:12.344Z,19.02
2019-01-29T02:30:39.857Z,18.99
2019-01-29T02:33:07.377Z,19.00
2019-01-29T02:35:34.907Z,18.98
2019-01-29T02:38:02.447Z,18.95
2019-01-29T02:40:29.978Z,18.95
2019-01-29T02:42:57.538Z,18.97
2019-01-29T02:45:25.047Z,18.96
2019-01-29T02:47:52.576Z,18.96
2019-01-29T02:50:20.065Z,18.96
2019-01-29T02:52:47.618Z,18.95
2019-01-29T02:55:15.655Z,18.95
2019-01-29T02:57:43.169Z,18.98
2019-01-29T03:00:12.310Z,18.97
2019-01-29T03:02:39.854Z,18.98
2019-01-29T03:05:08.815Z,18.96
2019-01-29T03:07:36.316Z,18.96
2019-01-29T03:10:05.499Z,18.95
2019-01-29T03:12:32.992Z,18.94
2019-01-29T03:15:00.534Z,18.94
2019-01-29T03:17:28.089Z,18.95
2019-01-29T03:19:55.606Z,18.95
2019-01-29T03:22:23.114Z,18.93
2019-01-29T03:24:50.614Z,18.91
2019-01-29T03:27:18.124Z,18.93
2019-01-29T03:29:45.656Z,18.91
2019-01-29T03:32:14.086Z,18.91
2019-01-29T03:34:41.610Z,18.93
2019-01-29T03:37:09.099Z,18.92
2019-01-29T03:39:36.609Z,18.92
2019-01-29T03:42:04.130Z,18.93
2019-01-29T03:44:31.625Z,18.91
2019-01-29T03:46:59.139Z,18.93
2019-01-29T03:49:26.659Z,18.94
2019-01-29T03:51:54.152Z,18.94
2019-01-29T03:54:21.666Z,18.93
2019-01-29T03:56:49.190Z,18.94
2019-01-29T03:59:16.682Z,18.95
2019-01-29T04:01:44.203Z,18.96
2019-01-29T04:04:11.687Z,18.94
2019-01-29T04:06:39.227Z,18.92
2019-01-29T04:09:07.580Z,18.94
2019-01-29T04:11:35.111Z,18.95
2019-01-29T04:14:02.609Z,18.96
2019-01-29T04:16:30.114Z,18.96
2019-01-29T04:18:57.622Z,18.96
2019-01-29T04:21:25.158Z,18.95
2019-01-29T04:23:52.644Z,18.96
2019-01-29T04:26:20.188Z,18.95
2019-01-29T04:28:47.687Z,18.95
2019-01-29T04:31:15.178Z,18.92
2019-01-29T04:33:42.689Z,18.93
2019-01-29T04:36:10.237Z,18.95
2019-01-29T04:38:37.744Z,18.93
2019-01-29T04:41:05.250Z,18.93
2019-01-29T04:43:32.785Z,18.94
2019-01-29T04:46:00.274Z,18.92
2019-01-29T04:48:27.805Z,18.94
2019-01-29T04:50:55.329Z,18.94
2019-01-29T04:53:22.826Z,18.94
2019-01-29T04:55:50.338Z,18.95
2019-01-29T04:58:17.824Z,18.97
2019-01-29T05:00:45.359Z,18.98
2019-01-29T05:03:12.875Z,18.98
2019-01-29T05:05:40.377Z,18.98
2019-01-29T05:08:07.920Z,18.98
2019-01-29T05:10:35.447Z,18.98
2019-01-29T05:13:02.983Z,18.98
2019-01-29T05:15:30.567Z,18.97
2019-01-29T05:17:58.111Z,18.97
2019-01-29T05:20:25.619Z,18.98
2019-01-29T05:22:53.144Z,18.99
2019-01-29T05:25:20.679Z,18.99
2019-01-29T05:27:48.182Z,18.98
2019-01-29T05:30:17.323Z,18.98
2019-01-29T05:32:44.861Z,18.98
2019-01-29T05:35:12.387Z,18.98
2019-01-29T05:37:39.881Z,18.98
2019-01-29T05:40:08.994Z,18.98
2019-01-29T05:42:36.517Z,18.97
2019-01-29T05:45:05.306Z,18.98
2019-01-29T05:47:32.832Z,18.98
2019-01-29T05:50:00.352Z,18.99
2019-01-29T05:52:27.893Z,19.00
2019-01-29T05:54:55.407Z,18.98
2019-01-29T05:57:22.917Z,19.00
2019-01-29T05:59:50.433Z,19.00
2019-01-29T06:02:17.943Z,18.99
2019-01-29T06:04:45.472Z,19.00
2019-01-29T06:07:12.969Z,18.98
2019-01-29T06:09:40.511Z,18.99
2019-01-29T06:12:08.041Z,18.99
2019-01-29T06:14:35.552Z,18.98
2019-01-29T06:17:03.057Z,18.99
2019-01-29T06:19:30.583Z,18.98
2019-01-29T06:21:58.107Z,18.98
2019-01-29T06:24:26.194Z,18.96
2019-01-29T06:26:53.921Z,18.94
2019-01-29T06:29:21.437Z,18.94
2019-01-29T06:31:48.983Z,18.99
2019-01-29T06:34:16.487Z,18.97
2019-01-29T06:36:44.019Z,18.97
2019-01-29T06:39:11.515Z,18.98
2019-01-29T06:41:39.037Z,18.98
2019-01-29T06:44:06.577Z,18.97
2019-01-29T06:46:34.090Z,18.96
2019-01-29T06:49:01.595Z,18.97
2019-01-29T06:51:29.121Z,18.96
2019-01-29T06:53:56.647Z,18.97
2019-01-29T06:56:24.240Z,18.99
2019-01-29T06:58:52.020Z,18.99
2019-01-29T07:01:19.519Z,18.98
2019-01-29T07:03:47.021Z,18.98
2019-01-29T07:06:14.542Z,18.99
2019-01-29T07:08:42.039Z,18.98
2019-01-29T07:11:09.593Z,18.98
2019-01-29T07:13:37.101Z,18.98
2019-01-29T07:16:06.304Z,18.99
2019-01-29T07:18:35.459Z,18.97
2019-01-29T07:21:04.625Z,18.98
2019-01-29T07:23:32.148Z,18.98
2019-01-29T07:25:59.657Z,18.99
2019-01-29T07:28:27.191Z,18.99
2019-01-29T07:30:54.706Z,18.99
2019-01-29T07:33:22.231Z,18.99
2019-01-29T07:35:49.727Z,18.99
2019-01-29T07:38:17.256Z,19.00
2019-01-29T07:40:44.751Z,18.99
2019-01-29T07:43:12.276Z,18.99
2019-01-29T07:45:39.768Z,18.96
2019-01-29T07:48:07.299Z,18.98
2019-01-29T07:50:34.889Z,18.98
2019-01-29T07:53:02.387Z,18.99
2019-01-29T07:55:29.897Z,18.97
2019-01-29T07:57:57.398Z,18.98
2019-01-29T08:00:24.915Z,18.96
2019-01-29T08:02:52.447Z,18.97
2019-01-29T08:05:20.737Z,18.98
2019-01-29T08:07:48.446Z,18.99
2019-01-29T08:10:16.638Z,18.98
2019-01-29T08:12:44.157Z,18.97
2019-01-29T08:15:15.611Z,18.99
2019-01-29T08:17:43.105Z,19.03
2019-01-29T08:20:11.258Z,19.06
2019-01-29T08:22:38.765Z,19.09
2019-01-29T08:25:07.847Z,19.11
2019-01-29T08:27:35.373Z,19.12
2019-01-29T08:30:03.453Z,19.13
2019-01-29T08:32:30.975Z,19.15
2019-01-29T08:34:58.487Z,19.16
2019-01-29T08:37:26.003Z,19.16
2019-01-29T08:39:53.500Z,19.18
2019-01-29T08:42:21.024Z,19.20
2019-01-29T08:44:48.527Z,19.20
2019-01-29T08:47:16.036Z,19.21
2019-01-29T08:49:43.581Z,19.23
2019-01-29T08:52:11.686Z,19.24
2019-01-29T08:54:39.290Z,19.25
2019-01-29T08:57:06.806Z,19.26
2019-01-29T08:59:34.297Z,19.30
2019-01-29T09:02:01.801Z,19.30
2019-01-29T09:04:29.328Z,19.27
2019-01-29T09:06:56.832Z,19.26
2019-01-29T09:09:24.347Z,19.27
2019-01-29T09:11:51.860Z,19.30
2019-01-29T09:14:19.374Z,19.29
2019-01-29T09:16:46.884Z,19.30
2019-01-29T09:19:14.411Z,19.32
2019-01-29T09:21:41.897Z,19.32
2019-01-29T09:24:09.412Z,19.30
2019-01-29T09:26:36.904Z,19.33
2019-01-29T09:29:04.439Z,19.35
2019-01-29T09:31:31.942Z,19.36
2019-01-29T09:33:59.544Z,19.35
2019-01-29T09:36:27.084Z,19.33
2019-01-29T09:38:54.603Z,19.35
2019-01-29T09:41:22.094Z,19.39
2019-01-29T09:43:49.645Z,19.39
2019-01-29T09:46:17.180Z,19.40
2019-01-29T09:48:44.665Z,19.39
2019-01-29T09:51:12.196Z,19.37
2019-01-29T09:53:39.721Z,19.39
2019-01-29T09:56:07.238Z,19.39
2019-01-29T09:58:34.730Z,19.38
2019-01-29T10:01:02.252Z,19.41
2019-01-29T10:03:29.758Z,19.40
2019-01-29T10:05:57.281Z,19.41
2019-01-29T10:08:24.771Z,19.42
2019-01-29T10:10:52.300Z,19.40
2019-01-29T10:13:19.869Z,19.41
2019-01-29T10:15:47.424Z,19.42
2019-01-29T10:18:14.953Z,19.43
2019-01-29T10:20:42.454Z,19.42
2019-01-29T10:23:09.981Z,19.43
2019-01-29T10:25:38.245Z,19.43
2019-01-29T10:28:05.762Z,19.44
2019-01-29T10:30:33.288Z,19.46
2019-01-29T10:33:00.794Z,19.47
2019-01-29T10:35:28.776Z,19.44
2019-01-29T10:37:56.271Z,19.46
2019-01-29T10:40:24.930Z,19.47
2019-01-29T10:42:52.492Z,19.46
2019-01-29T10:45:20.804Z,19.47
2019-01-29T10:47:48.302Z,19.46
2019-01-29T10:50:23.097Z,19.41
2019-01-29T10:52:50.692Z,19.41
2019-01-29T10:55:18.200Z,19.45
2019-01-29T10:57:45.704Z,19.45
2019-01-29T11:00:20.992Z,19.46
2019-01-29T11:02:48.499Z,19.50
2019-01-29T11:05:17.178Z,19.50
2019-01-29T11:07:44.703Z,19.49
2019-01-29T11:10:16.883Z,19.48
2019-01-29T11:12:44.417Z,19.50
2019-01-29T11:15:13.803Z,19.51
2019-01-29T11:17:41.326Z,19.54
2019-01-29T11:20:13.168Z,19.53
2019-01-29T11:22:40.694Z,19.54
2019-01-29T11:25:10.071Z,19.54
2019-01-29T11:27:37.770Z,19.57
2019-01-29T11:30:06.913Z,19.57
2019-01-29T11:32:34.432Z,19.59
2019-01-29T11:35:01.943Z,19.60
2019-01-29T11:37:29.476Z,19.59
2019-01-29T11:39:56.999Z,19.61
2019-01-29T11:42:24.530Z,19.63
2019-01-29T11:44:52.042Z,19.66
2019-01-29T11:47:19.612Z,19.66
2019-01-29T11:49:47.138Z,19.66
2019-01-29T11:52:14.629Z,19.66
2019-01-29T11:54:42.164Z,19.66
2019-01-29T11:57:09.675Z,19.66
2019-01-29T11:59:37.182Z,19.65
2019-01-29T12:02:04.691Z,19.66
2019-01-29T12:04:32.232Z,19.63
2019-01-29T12:06:59.720Z,19.62
2019-01-29T12:09:27.249Z,19.63
2019-01-29T12:11:54.832Z,19.65
2019-01-29T12:14:22.339Z,19.65
2019-01-29T12:16:49.893Z,19.67
2019-01-29T12:19:17.389Z,19.67
2019-01-29T12:21:44.883Z,19.67
2019-01-29T12:24:12.419Z,19.67
2019-01-29T12:26:39.914Z,19.68
2019-01-29T12:29:07.445Z,19.69
2019-01-29T12:31:34.963Z,19.70
2019-01-29T12:34:02.474Z,19.69
2019-01-29T12:36:29.989Z,19.71
2019-01-29T12:38:57.501Z,19.69
2019-01-29T12:41:25.005Z,19.70
2019-01-29T12:43:52.531Z,19.73
2019-01-29T12:46:20.055Z,19.73
2019-01-29T12:48:47.567Z,19.73
2019-01-29T12:51:16.711Z,19.75
2019-01-29T12:53:44.236Z,19.76
2019-01-29T12:56:11.735Z,19.75
2019-01-29T12:58:39.306Z,19.74
2019-01-29T13:01:06.805Z,19.75
2019-01-29T13:03:34.355Z,19.76
2019-01-29T13:06:01.847Z,19.75
2019-01-29T13:08:29.402Z,19.78
2019-01-29T13:10:56.932Z,19.72
2019-01-29T13:13:24.431Z,19.70
2019-01-29T13:15:52.507Z,19.69
2019-01-29T13:18:20.033Z,19.69
2019-01-29T13:20:47.557Z,19.68
2019-01-29T13:23:15.111Z,19.68
2019-01-29T13:25:42.661Z,19.67
2019-01-29T13:28:10.165Z,19.65
2019-01-29T13:30:37.673Z,19.69
2019-01-29T13:33:06.491Z,19.68
2019-01-29T13:35:34.548Z,19.67
2019-01-29T13:38:02.063Z,19.67
2019-01-29T13:40:29.657Z,19.67
2019-01-29T13:42:57.159Z,19.66
2019-01-29T13:45:24.751Z,19.65
2019-01-29T13:47:52.282Z,19.63
2019-01-29T13:50:27.482Z,19.63
2019-01-29T13:52:54.999Z,19.63
2019-01-29T13:55:22.503Z,19.63
2019-01-29T13:57:50.037Z,19.60
2019-01-29T14:00:19.173Z,19.60
2019-01-29T14:02:46.686Z,19.60
2019-01-29T14:05:14.205Z,19.60
2019-01-29T14:07:41.718Z,19.60
2019-01-29T14:10:11.107Z,19.60
2019-01-29T14:12:38.615Z,19.62
2019-01-29T14:15:07.718Z,19.61
2019-01-29T14:17:35.254Z,19.60
2019-01-29T14:20:02.753Z,19.60
2019-01-29T14:22:30.267Z,19.60
2019-01-29T14:24:57.789Z,19.59
2019-01-29T14:27:25.405Z,19.60
2019-01-29T14:29:52.927Z,19.60
2019-01-29T14:32:20.641Z,19.60
2019-01-29T14:34:48.171Z,19.59
2019-01-29T14:37:15.659Z,19.57
2019-01-29T14:39:51.251Z,19.57
2019-01-29T14:42:18.750Z,19.56
2019-01-29T14:44:46.345Z,19.56
2019-01-29T14:47:13.850Z,19.55
2019-01-29T14:49:41.376Z,19.54
2019-01-29T14:52:08.899Z,19.54
2019-01-29T14:54:36.437Z,19.56
2019-01-29T14:57:04.017Z,19.58
2019-01-29T14:59:31.511Z,19.56
2019-01-29T15:01:59.058Z,19.55
2019-01-29T15:04:26.608Z,19.56
2019-01-29T15:06:54.182Z,19.56
2019-01-29T15:09:21.755Z,19.56
2019-01-29T15:11:49.252Z,19.54
2019-01-29T15:14:16.787Z,19.53
2019-01-29T15:16:46.053Z,19.55
2019-01-29T15:19:13.766Z,19.54
2019-01-29T15:21:41.374Z,19.55
2019-01-29T15:24:08.865Z,19.53
2019-01-29T15:26:36.407Z,19.52
2019-01-29T15:29:03.911Z,19.54
2019-01-29T15:31:31.424Z,19.54
2019-01-29T15:33:58.946Z,19.52
2019-01-29T15:36:26.462Z,19.53
2019-01-29T15:38:53.972Z,19.53
2019-01-29T15:41:21.471Z,19.52
2019-01-29T15:43:48.987Z,19.53
2019-01-29T15:46:16.499Z,19.51
2019-01-29T15:48:44.025Z,19.52
2019-01-29T15:51:11.522Z,19.54
2019-01-29T15:53:39.045Z,19.52
2019-01-29T15:56:06.627Z,19.57
2019-01-29T15:58:34.240Z,19.59
2019-01-29T16:01:01.744Z,19.63
2019-01-29T16:03:29.279Z,19.63
2019-01-29T16:05:56.786Z,19.66
2019-01-29T16:08:24.323Z,19.66
2019-01-29T16:10:51.836Z,19.66
2019-01-29T16:13:19.356Z,19.71
2019-01-29T16:15:46.888Z,19.76
2019-01-29T16:18:14.387Z,19.80
2019-01-29T16:20:41.900Z,19.81
2019-01-29T16:23:09.519Z,19.84
2019-01-29T16:25:37.280Z,19.84
2019-01-29T16:28:04.784Z,19.85
2019-01-29T16:30:35.843Z,19.88
2019-01-29T16:33:03.361Z,19.88
2019-01-29T16:35:32.591Z,19.89
2019-01-29T16:38:00.085Z,19.90
2019-01-29T16:40:28.683Z,19.91
2019-01-29T16:42:56.685Z,19.96
2019-01-29T16:45:25.695Z,19.89
2019-01-29T16:47:53.195Z,19.70
2019-01-29T16:50:21.862Z,19.56
2019-01-29T16:52:49.409Z,19.52
2019-01-29T16:55:18.073Z,19.57
2019-01-29T16:57:45.596Z,19.50
2019-01-29T17:00:14.762Z,19.55
2019-01-29T17:02:42.258Z,19.42
2019-01-29T17:05:10.048Z,19.41
2019-01-29T17:07:37.586Z,19.41
2019-01-29T17:10:09.116Z,19.33
2019-01-29T17:12:37.318Z,19.33
2019-01-29T17:15:17.195Z,19.21
2019-01-29T17:17:45.409Z,18.93
2019-01-29T17:20:22.048Z,19.12
2019-01-29T17:22:50.257Z,19.07
2019-01-29T17:25:18.526Z,18.98
2019-01-29T17:27:46.752Z,18.89
2019-01-29T17:30:27.039Z,19.01
2019-01-29T17:32:55.257Z,19.01
2019-01-29T17:35:23.485Z,19.07
2019-01-29T17:37:51.718Z,19.10
2019-01-29T17:40:21.365Z,19.04
2019-01-29T17:42:49.610Z,19.09
2019-01-29T17:45:21.090Z,19.18
2019-01-29T17:47:49.315Z,19.17
2019-01-29T17:50:20.647Z,19.15
2019-01-29T17:52:48.887Z,19.09
2019-01-29T17:55:17.632Z,19.18
2019-01-29T17:57:50.756Z,19.06
2019-01-29T18:00:19.058Z,19.00
2019-01-29T18:02:47.301Z,18.83
2019-01-29T18:05:15.515Z,18.69
2019-01-29T18:07:43.735Z,18.53
2019-01-29T18:10:14.879Z,18.47
2019-01-29T18:12:43.102Z,18.74
2019-01-29T18:15:14.891Z,18.72
2019-01-29T18:17:43.107Z,18.73
2019-01-29T18:20:11.412Z,18.77
2019-01-29T18:22:39.690Z,18.85
2019-01-29T18:25:10.378Z,19.30
2019-01-29T18:27:38.585Z,19.54
2019-01-29T18:30:10.059Z,19.66
2019-01-29T18:32:38.298Z,19.68
2019-01-29T18:35:08.266Z,19.72
2019-01-29T18:37:36.513Z,19.73
2019-01-29T18:40:07.976Z,19.73
2019-01-29T18:42:36.170Z,19.75
2019-01-29T18:45:06.145Z,19.79
2019-01-29T18:47:34.354Z,19.81
2019-01-29T18:50:02.557Z,19.82
2019-01-29T18:52:30.779Z,19.85
2019-01-29T18:54:58.975Z,19.87
2019-01-29T18:57:27.202Z,19.60
2019-01-29T18:59:55.404Z,19.25
2019-01-29T19:02:23.730Z,18.92
2019-01-29T19:04:51.904Z,19.18
2019-01-29T19:07:20.131Z,19.18
2019-01-29T19:09:48.324Z,19.50
2019-01-29T19:12:16.613Z,19.74
2019-01-29T19:14:44.859Z,19.76
2019-01-29T19:17:13.060Z,19.78
2019-01-29T19:19:41.279Z,19.86
2019-01-29T19:22:09.478Z,19.91
2019-01-29T19:24:37.713Z,19.95
2019-01-29T19:27:05.930Z,19.97
2019-01-29T19:29:34.171Z,20.02
2019-01-29T19:32:02.452Z,20.04
2019-01-29T19:34:30.694Z,20.06
2019-01-29T19:36:58.921Z,20.09
2019-01-29T19:39:27.138Z,20.15
2019-01-29T19:41:55.386Z,19.78
2019-01-29T19:44:23.577Z,19.37
2019-01-29T19:46:51.801Z,19.27
2019-01-29T19:49:20.027Z,19.18
2019-01-29T19:51:49.096Z,19.17
2019-01-29T19:54:17.411Z,19.12
2019-01-29T19:56:45.657Z,19.20
2019-01-29T19:59:13.851Z,19.13
2019-01-29T20:01:42.082Z,19.17
2019-01-29T20:04:10.323Z,19.21
2019-01-29T20:06:38.529Z,19.32
2019-01-29T20:09:09.413Z,19.33
2019-01-29T20:11:37.623Z,19.26
2019-01-29T20:14:05.934Z,19.43
2019-01-29T20:16:34.150Z,19.30
2019-01-29T20:19:02.387Z,19.17
2019-01-29T20:21:30.615Z,19.23
2019-01-29T20:23:58.865Z,19.33
2019-01-29T20:26:27.081Z,19.54
2019-01-29T20:28:55.317Z,19.72
2019-01-29T20:31:23.551Z,19.79
2019-01-29T20:33:51.772Z,19.85
2019-01-29T20:36:19.995Z,19.80
2019-01-29T20:38:48.274Z,19.79
2019-01-29T20:41:16.488Z,19.81
2019-01-29T20:43:44.691Z,19.83
2019-01-29T20:46:12.919Z,19.88
2019-01-29T20:48:41.125Z,19.90
2019-01-29T20:51:09.341Z,19.90
2019-01-29T20:53:37.537Z,19.90
2019-01-29T20:56:05.781Z,19.93
2019-01-29T20:58:34.002Z,19.94
2019-01-29T21:01:02.228Z,20.01
2019-01-29T21:03:30.430Z,20.01
2019-01-29T21:05:58.724Z,19.97
2019-01-29T21:08:26.914Z,20.00
2019-01-29T21:10:55.135Z,20.03
2019-01-29T21:13:23.358Z,20.03
2019-01-29T21:15:51.577Z,20.03
2019-01-29T21:18:19.789Z,20.07
2019-01-29T21:20:56.896Z,20.12
2019-01-29T21:23:17.935Z,20.09
2019-01-29T21:25:46.136Z,20.10
2019-01-29T21:28:14.366Z,20.13
2019-01-29T21:30:44.031Z,20.12
2019-01-29T21:33:12.385Z,20.11
2019-01-29T21:35:40.596Z,20.14
2019-01-29T21:38:08.796Z,20.13
2019-01-29T21:40:37.038Z,20.16
2019-01-29T21:43:05.227Z,20.17
2019-01-29T21:45:33.477Z,20.18
2019-01-29T21:48:01.737Z,20.19
2019-01-29T21:50:34.336Z,20.19
2019-01-29T21:53:02.547Z,20.20
2019-01-29T21:55:30.868Z,20.20
2019-01-29T21:57:59.496Z,20.21
2019-01-29T22:00:30.332Z,20.22
2019-01-29T22:02:58.561Z,20.24
2019-01-29T22:05:26.770Z,20.25
2019-01-29T22:07:57.499Z,20.27
2019-01-29T22:10:24.959Z,20.21
2019-01-29T22:12:53.160Z,20.17
2019-01-29T22:15:23.756Z,20.14
2019-01-29T22:17:51.984Z,20.14
2019-01-29T22:20:21.610Z,20.09
2019-01-29T22:22:49.818Z,20.10
2019-01-29T22:25:22.317Z,20.13
2019-01-29T22:27:50.502Z,20.17
2019-01-29T22:30:34.040Z,20.10
2019-01-29T22:33:02.231Z,20.08
2019-01-29T22:35:30.474Z,20.13
2019-01-29T22:37:58.713Z,20.12
2019-01-29T22:40:29.580Z,20.08
2019-01-29T22:42:57.960Z,20.13
2019-01-29T22:45:26.180Z,20.15
2019-01-29T22:47:54.406Z,20.14
2019-01-29T22:50:30.882Z,20.15
2019-01-29T22:52:59.116Z,20.16
2019-01-29T22:55:27.328Z,20.14
2019-01-29T22:57:55.537Z,20.12
2019-01-29T23:00:51.119Z,20.16
2019-01-29T23:03:25.595Z,20.11
2019-01-29T23:05:59.628Z,20.02
2019-01-29T23:08:27.858Z,19.95
2019-01-29T23:10:57.465Z,19.91
2019-01-29T23:13:25.755Z,19.90
2019-01-29T23:15:53.962Z,19.88
2019-01-29T23:18:22.188Z,19.89
2019-01-29T23:20:50.415Z,19.88
2019-01-29T23:23:18.627Z,19.82
2019-01-29T23:25:46.830Z,19.86
2019-01-29T23:28:15.052Z,19.85
2019-01-29T23:30:43.246Z,19.81
2019-01-29T23:33:11.475Z,19.78
2019-01-29T23:35:39.672Z,19.82
2019-01-29T23:38:07.881Z,19.82
2019-01-29T23:40:36.109Z,19.79
2019-01-29T23:43:04.310Z,19.75
2019-01-29T23:45:32.500Z,19.79
2019-01-29T23:48:00.703Z,19.76
2019-01-29T23:50:29.636Z,19.79
2019-01-29T23:52:57.852Z,19.74
2019-01-29T23:55:26.536Z,19.73
2019-01-29T23:57:54.732Z,19.72
